sensor_id;sensor_type;location;lat;lon;timestamp;P1;durP1;ratioP1;P2;durP2;ratioP2
36629;SDS011;36256;42.154;23.002;2023-02-18T00:01:01;16.65;;;8.98;;
36629;SDS011;36256;42.154;23.002;2023-02-18T00:03:29;18.02;;;9.52;;
36629;SDS011;36256;42.154;23.002;2023-02-18T00:05:56;18.15;;;10.13;;
36629;SDS011;36256;42.154;23.002;2023-02-18T00:08:23;17.30;;;8.20;;
36629;SDS011;36256;42.154;23.002;2023-02-18T00:10:49;15.63;;;8.57;;
36629;SDS011;36256;42.154;23.002;2023-02-18T00:13:16;16.25;;;8.00;;
36629;SDS011;36256;42.154;23.002;2023-02-18T00:15:43;15.32;;;8.65;;
36629;SDS011;36256;42.154;23.002;2023-02-18T00:18:09;16.27;;;8.32;;
36629;SDS011;36256;42.154;23.002;2023-02-18T00:20:37;16.42;;;8.73;;
36629;SDS011;36256;42.154;23.002;2023-02-18T00:23:05;19.65;;;8.98;;
36629;SDS011;36256;42.154;23.002;2023-02-18T00:25:31;14.75;;;7.25;;
36629;SDS011;36256;42.154;23.002;2023-02-18T00:27:58;14.35;;;7.68;;
36629;SDS011;36256;42.154;23.002;2023-02-18T00:30:24;12.15;;;5.80;;
36629;SDS011;36256;42.154;23.002;2023-02-18T00:32:53;13.65;;;7.63;;
36629;SDS011;36256;42.154;23.002;2023-02-18T00:35:20;12.30;;;7.70;;
36629;SDS011;36256;42.154;23.002;2023-02-18T00:37:47;17.92;;;7.93;;
36629;SDS011;36256;42.154;23.002;2023-02-18T00:40:16;13.57;;;8.02;;
36629;SDS011;36256;42.154;23.002;2023-02-18T00:42:43;10.43;;;6.15;;
36629;SDS011;36256;42.154;23.002;2023-02-18T00:45:09;15.00;;;8.48;;
36629;SDS011;36256;42.154;23.002;2023-02-18T00:47:36;13.10;;;7.82;;
36629;SDS011;36256;42.154;23.002;2023-02-18T00:50:02;13.95;;;7.55;;
36629;SDS011;36256;42.154;23.002;2023-02-18T00:52:29;16.20;;;8.25;;
36629;SDS011;36256;42.154;23.002;2023-02-18T00:54:56;15.35;;;8.35;;
36629;SDS011;36256;42.154;23.002;2023-02-18T00:57:22;13.60;;;8.45;;
36629;SDS011;36256;42.154;23.002;2023-02-18T00:59:49;11.57;;;6.72;;
36629;SDS011;36256;42.154;23.002;2023-02-18T01:02:16;15.18;;;8.10;;
36629;SDS011;36256;42.154;23.002;2023-02-18T01:04:43;14.35;;;8.00;;
36629;SDS011;36256;42.154;23.002;2023-02-18T01:07:09;15.82;;;7.70;;
36629;SDS011;36256;42.154;23.002;2023-02-18T01:09:36;10.25;;;5.53;;
36629;SDS011;36256;42.154;23.002;2023-02-18T01:12:03;16.70;;;8.00;;
36629;SDS011;36256;42.154;23.002;2023-02-18T01:14:30;14.15;;;7.65;;
36629;SDS011;36256;42.154;23.002;2023-02-18T01:16:57;15.18;;;8.13;;
36629;SDS011;36256;42.154;23.002;2023-02-18T01:19:23;15.77;;;8.48;;
36629;SDS011;36256;42.154;23.002;2023-02-18T01:21:50;13.55;;;7.38;;
36629;SDS011;36256;42.154;23.002;2023-02-18T01:24:16;15.27;;;7.75;;
36629;SDS011;36256;42.154;23.002;2023-02-18T01:26:43;11.20;;;6.82;;
36629;SDS011;36256;42.154;23.002;2023-02-18T01:29:09;14.73;;;7.88;;
36629;SDS011;36256;42.154;23.002;2023-02-18T01:31:36;14.77;;;8.15;;
36629;SDS011;36256;42.154;23.002;2023-02-18T01:34:03;15.25;;;7.70;;
36629;SDS011;36256;42.154;23.002;2023-02-18T01:36:30;18.30;;;8.52;;
36629;SDS011;36256;42.154;23.002;2023-02-18T01:38:56;16.63;;;8.30;;
36629;SDS011;36256;42.154;23.002;2023-02-18T01:41:23;9.90;;;5.97;;
36629;SDS011;36256;42.154;23.002;2023-02-18T01:46:46;15.02;;;7.55;;
36629;SDS011;36256;42.154;23.002;2023-02-18T01:49:17;16.20;;;8.20;;
36629;SDS011;36256;42.154;23.002;2023-02-18T01:51:50;13.30;;;7.00;;
36629;SDS011;36256;42.154;23.002;2023-02-18T01:54:21;14.90;;;7.90;;
36629;SDS011;36256;42.154;23.002;2023-02-18T01:56:57;20.42;;;9.73;;
36629;SDS011;36256;42.154;23.002;2023-02-18T01:59:33;20.85;;;10.32;;
36629;SDS011;36256;42.154;23.002;2023-02-18T02:02:04;15.80;;;9.02;;
36629;SDS011;36256;42.154;23.002;2023-02-18T02:04:36;18.33;;;8.70;;
36629;SDS011;36256;42.154;23.002;2023-02-18T02:07:02;12.00;;;6.20;;
36629;SDS011;36256;42.154;23.002;2023-02-18T02:09:30;16.73;;;8.23;;
36629;SDS011;36256;42.154;23.002;2023-02-18T02:12:03;19.73;;;9.02;;
36629;SDS011;36256;42.154;23.002;2023-02-18T02:14:58;15.80;;;8.82;;
36629;SDS011;36256;42.154;23.002;2023-02-18T02:26:30;19.08;;;9.57;;
36629;SDS011;36256;42.154;23.002;2023-02-18T02:29:07;16.98;;;9.20;;
36629;SDS011;36256;42.154;23.002;2023-02-18T02:31:45;17.55;;;8.25;;
36629;SDS011;36256;42.154;23.002;2023-02-18T02:34:30;15.30;;;8.00;;
36629;SDS011;36256;42.154;23.002;2023-02-18T02:39:56;15.88;;;8.52;;
36629;SDS011;36256;42.154;23.002;2023-02-18T02:54:50;13.80;;;7.38;;
36629;SDS011;36256;42.154;23.002;2023-02-18T02:59:46;17.88;;;8.23;;
36629;SDS011;36256;42.154;23.002;2023-02-18T03:10:35;19.80;;;8.48;;
36629;SDS011;36256;42.154;23.002;2023-02-18T03:16:15;15.63;;;8.10;;
36629;SDS011;36256;42.154;23.002;2023-02-18T03:24:13;13.27;;;7.88;;
36629;SDS011;36256;42.154;23.002;2023-02-18T03:26:44;15.88;;;8.45;;
36629;SDS011;36256;42.154;23.002;2023-02-18T03:29:15;14.90;;;7.68;;
36629;SDS011;36256;42.154;23.002;2023-02-18T03:31:45;15.98;;;7.78;;
36629;SDS011;36256;42.154;23.002;2023-02-18T03:34:31;15.40;;;7.45;;
36629;SDS011;36256;42.154;23.002;2023-02-18T03:37:00;22.45;;;11.77;;
36629;SDS011;36256;42.154;23.002;2023-02-18T03:41:56;16.77;;;8.48;;
36629;SDS011;36256;42.154;23.002;2023-02-18T03:44:23;19.27;;;10.95;;
36629;SDS011;36256;42.154;23.002;2023-02-18T03:46:51;23.17;;;10.80;;
36629;SDS011;36256;42.154;23.002;2023-02-18T03:51:44;23.65;;;11.75;;
36629;SDS011;36256;42.154;23.002;2023-02-18T03:54:11;21.50;;;10.98;;
36629;SDS011;36256;42.154;23.002;2023-02-18T03:56:39;25.00;;;12.80;;
36629;SDS011;36256;42.154;23.002;2023-02-18T03:59:08;21.13;;;11.25;;
36629;SDS011;36256;42.154;23.002;2023-02-18T04:01:34;27.63;;;13.38;;
36629;SDS011;36256;42.154;23.002;2023-02-18T04:04:01;27.52;;;16.45;;
36629;SDS011;36256;42.154;23.002;2023-02-18T04:06:28;38.35;;;21.35;;
36629;SDS011;36256;42.154;23.002;2023-02-18T04:08:55;29.23;;;15.80;;
36629;SDS011;36256;42.154;23.002;2023-02-18T04:11:22;24.17;;;11.63;;
36629;SDS011;36256;42.154;23.002;2023-02-18T04:13:48;22.10;;;12.55;;
36629;SDS011;36256;42.154;23.002;2023-02-18T04:16:15;23.77;;;11.82;;
36629;SDS011;36256;42.154;23.002;2023-02-18T04:18:42;26.48;;;13.77;;
36629;SDS011;36256;42.154;23.002;2023-02-18T04:21:08;30.88;;;15.80;;
36629;SDS011;36256;42.154;23.002;2023-02-18T04:23:35;33.13;;;17.20;;
36629;SDS011;36256;42.154;23.002;2023-02-18T04:26:01;31.35;;;15.68;;
36629;SDS011;36256;42.154;23.002;2023-02-18T04:28:28;99.78;;;40.30;;
36629;SDS011;36256;42.154;23.002;2023-02-18T04:30:55;61.20;;;26.58;;
36629;SDS011;36256;42.154;23.002;2023-02-18T04:33:21;38.28;;;18.90;;
36629;SDS011;36256;42.154;23.002;2023-02-18T04:35:48;50.35;;;24.75;;
36629;SDS011;36256;42.154;23.002;2023-02-18T04:38:14;32.08;;;13.10;;
36629;SDS011;36256;42.154;23.002;2023-02-18T04:40:41;21.17;;;11.13;;
36629;SDS011;36256;42.154;23.002;2023-02-18T04:43:08;23.92;;;11.15;;
36629;SDS011;36256;42.154;23.002;2023-02-18T04:45:34;19.60;;;11.48;;
36629;SDS011;36256;42.154;23.002;2023-02-18T04:48:01;21.23;;;11.73;;
36629;SDS011;36256;42.154;23.002;2023-02-18T04:50:28;19.70;;;10.00;;
36629;SDS011;36256;42.154;23.002;2023-02-18T04:52:54;33.33;;;18.80;;
36629;SDS011;36256;42.154;23.002;2023-02-18T04:55:21;41.63;;;19.67;;
36629;SDS011;36256;42.154;23.002;2023-02-18T04:57:47;39.30;;;19.75;;
36629;SDS011;36256;42.154;23.002;2023-02-18T05:00:15;44.85;;;20.63;;
36629;SDS011;36256;42.154;23.002;2023-02-18T05:02:44;45.13;;;19.75;;
36629;SDS011;36256;42.154;23.002;2023-02-18T05:05:11;40.72;;;18.95;;
36629;SDS011;36256;42.154;23.002;2023-02-18T05:07:38;45.63;;;19.85;;
36629;SDS011;36256;42.154;23.002;2023-02-18T05:10:08;50.00;;;23.40;;
36629;SDS011;36256;42.154;23.002;2023-02-18T05:12:36;46.45;;;22.35;;
36629;SDS011;36256;42.154;23.002;2023-02-18T05:15:03;39.00;;;19.50;;
36629;SDS011;36256;42.154;23.002;2023-02-18T05:17:30;43.55;;;21.65;;
36629;SDS011;36256;42.154;23.002;2023-02-18T05:19:56;44.65;;;20.00;;
36629;SDS011;36256;42.154;23.002;2023-02-18T05:22:23;37.10;;;20.33;;
36629;SDS011;36256;42.154;23.002;2023-02-18T05:24:50;36.70;;;20.88;;
36629;SDS011;36256;42.154;23.002;2023-02-18T05:27:16;42.60;;;22.45;;
36629;SDS011;36256;42.154;23.002;2023-02-18T05:29:43;67.05;;;29.92;;
36629;SDS011;36256;42.154;23.002;2023-02-18T05:32:10;60.35;;;28.02;;
36629;SDS011;36256;42.154;23.002;2023-02-18T05:34:36;35.60;;;17.73;;
36629;SDS011;36256;42.154;23.002;2023-02-18T05:37:03;41.25;;;20.15;;
36629;SDS011;36256;42.154;23.002;2023-02-18T05:39:29;47.85;;;23.77;;
36629;SDS011;36256;42.154;23.002;2023-02-18T05:41:56;46.20;;;23.48;;
36629;SDS011;36256;42.154;23.002;2023-02-18T05:44:22;48.65;;;22.83;;
36629;SDS011;36256;42.154;23.002;2023-02-18T05:46:56;45.85;;;22.23;;
36629;SDS011;36256;42.154;23.002;2023-02-18T05:49:24;51.85;;;22.88;;
36629;SDS011;36256;42.154;23.002;2023-02-18T05:51:51;59.13;;;28.80;;
36629;SDS011;36256;42.154;23.002;2023-02-18T05:54:17;53.47;;;26.48;;
36629;SDS011;36256;42.154;23.002;2023-02-18T05:56:44;42.78;;;23.02;;
36629;SDS011;36256;42.154;23.002;2023-02-18T05:59:10;33.42;;;17.15;;
36629;SDS011;36256;42.154;23.002;2023-02-18T06:01:37;52.72;;;24.58;;
36629;SDS011;36256;42.154;23.002;2023-02-18T06:04:04;51.92;;;28.08;;
36629;SDS011;36256;42.154;23.002;2023-02-18T06:06:30;53.35;;;26.73;;
36629;SDS011;36256;42.154;23.002;2023-02-18T06:08:57;55.53;;;28.90;;
36629;SDS011;36256;42.154;23.002;2023-02-18T06:11:24;41.22;;;20.27;;
36629;SDS011;36256;42.154;23.002;2023-02-18T06:13:50;55.03;;;26.95;;
36629;SDS011;36256;42.154;23.002;2023-02-18T06:16:17;49.42;;;24.00;;
36629;SDS011;36256;42.154;23.002;2023-02-18T06:18:43;45.00;;;23.58;;
36629;SDS011;36256;42.154;23.002;2023-02-18T06:21:10;38.35;;;20.75;;
36629;SDS011;36256;42.154;23.002;2023-02-18T06:23:37;48.15;;;26.15;;
36629;SDS011;36256;42.154;23.002;2023-02-18T06:26:03;57.65;;;31.40;;
36629;SDS011;36256;42.154;23.002;2023-02-18T06:28:30;72.38;;;33.80;;
36629;SDS011;36256;42.154;23.002;2023-02-18T06:30:57;97.55;;;45.97;;
36629;SDS011;36256;42.154;23.002;2023-02-18T06:33:23;82.57;;;39.40;;
36629;SDS011;36256;42.154;23.002;2023-02-18T06:35:57;80.05;;;37.00;;
36629;SDS011;36256;42.154;23.002;2023-02-18T06:38:26;76.25;;;37.53;;
36629;SDS011;36256;42.154;23.002;2023-02-18T06:40:53;64.43;;;29.52;;
36629;SDS011;36256;42.154;23.002;2023-02-18T06:43:20;66.88;;;27.65;;
36629;SDS011;36256;42.154;23.002;2023-02-18T06:45:47;52.88;;;24.92;;
36629;SDS011;36256;42.154;23.002;2023-02-18T06:48:13;47.40;;;24.40;;
36629;SDS011;36256;42.154;23.002;2023-02-18T06:50:42;46.53;;;23.02;;
36629;SDS011;36256;42.154;23.002;2023-02-18T06:53:09;55.25;;;27.98;;
36629;SDS011;36256;42.154;23.002;2023-02-18T06:55:36;44.40;;;23.73;;
36629;SDS011;36256;42.154;23.002;2023-02-18T06:58:03;49.22;;;27.67;;
36629;SDS011;36256;42.154;23.002;2023-02-18T07:00:30;57.05;;;28.58;;
36629;SDS011;36256;42.154;23.002;2023-02-18T07:02:57;62.95;;;32.53;;
36629;SDS011;36256;42.154;23.002;2023-02-18T07:05:24;65.53;;;33.72;;
36629;SDS011;36256;42.154;23.002;2023-02-18T07:07:50;46.08;;;22.83;;
36629;SDS011;36256;42.154;23.002;2023-02-18T07:10:17;35.20;;;19.67;;
36629;SDS011;36256;42.154;23.002;2023-02-18T07:12:44;47.83;;;22.13;;
36629;SDS011;36256;42.154;23.002;2023-02-18T07:15:10;38.58;;;19.92;;
36629;SDS011;36256;42.154;23.002;2023-02-18T07:17:37;40.80;;;20.88;;
36629;SDS011;36256;42.154;23.002;2023-02-18T07:20:04;45.65;;;21.45;;
36629;SDS011;36256;42.154;23.002;2023-02-18T07:24:58;40.47;;;21.27;;
36629;SDS011;36256;42.154;23.002;2023-02-18T07:27:24;86.15;;;44.28;;
36629;SDS011;36256;42.154;23.002;2023-02-18T07:29:51;55.75;;;31.38;;
36629;SDS011;36256;42.154;23.002;2023-02-18T07:32:18;78.45;;;39.45;;
36629;SDS011;36256;42.154;23.002;2023-02-18T07:34:45;79.43;;;43.22;;
36629;SDS011;36256;42.154;23.002;2023-02-18T07:37:12;62.95;;;35.42;;
36629;SDS011;36256;42.154;23.002;2023-02-18T07:39:39;79.75;;;42.58;;
36629;SDS011;36256;42.154;23.002;2023-02-18T07:42:06;59.40;;;32.13;;
36629;SDS011;36256;42.154;23.002;2023-02-18T07:44:33;54.95;;;30.23;;
36629;SDS011;36256;42.154;23.002;2023-02-18T07:47:00;69.40;;;33.47;;
36629;SDS011;36256;42.154;23.002;2023-02-18T07:49:27;78.35;;;32.97;;
36629;SDS011;36256;42.154;23.002;2023-02-18T07:51:54;53.35;;;23.70;;
36629;SDS011;36256;42.154;23.002;2023-02-18T07:54:21;42.22;;;24.50;;
36629;SDS011;36256;42.154;23.002;2023-02-18T07:56:47;40.47;;;23.52;;
36629;SDS011;36256;42.154;23.002;2023-02-18T07:59:15;40.97;;;23.27;;
36629;SDS011;36256;42.154;23.002;2023-02-18T08:01:41;39.03;;;22.45;;
36629;SDS011;36256;42.154;23.002;2023-02-18T08:04:10;49.72;;;26.33;;
36629;SDS011;36256;42.154;23.002;2023-02-18T08:06:38;44.20;;;22.40;;
36629;SDS011;36256;42.154;23.002;2023-02-18T08:09:06;42.88;;;24.02;;
36629;SDS011;36256;42.154;23.002;2023-02-18T08:11:33;43.35;;;22.20;;
36629;SDS011;36256;42.154;23.002;2023-02-18T08:14:00;42.78;;;24.58;;
36629;SDS011;36256;42.154;23.002;2023-02-18T08:16:27;51.53;;;27.20;;
36629;SDS011;36256;42.154;23.002;2023-02-18T08:18:54;54.05;;;27.50;;
36629;SDS011;36256;42.154;23.002;2023-02-18T08:21:22;46.97;;;26.98;;
36629;SDS011;36256;42.154;23.002;2023-02-18T08:23:50;49.65;;;26.70;;
36629;SDS011;36256;42.154;23.002;2023-02-18T08:26:17;47.22;;;27.23;;
36629;SDS011;36256;42.154;23.002;2023-02-18T08:33:50;53.95;;;27.08;;
36629;SDS011;36256;42.154;23.002;2023-02-18T08:36:19;49.30;;;28.85;;
36629;SDS011;36256;42.154;23.002;2023-02-18T08:38:46;38.42;;;23.02;;
36629;SDS011;36256;42.154;23.002;2023-02-18T08:41:13;49.25;;;28.05;;
36629;SDS011;36256;42.154;23.002;2023-02-18T08:46:07;55.67;;;30.63;;
36629;SDS011;36256;42.154;23.002;2023-02-18T08:48:41;61.70;;;31.55;;
36629;SDS011;36256;42.154;23.002;2023-02-18T08:51:14;46.38;;;25.35;;
36629;SDS011;36256;42.154;23.002;2023-02-18T08:53:44;42.53;;;24.05;;
36629;SDS011;36256;42.154;23.002;2023-02-18T08:56:14;32.22;;;18.40;;
36629;SDS011;36256;42.154;23.002;2023-02-18T08:58:42;34.03;;;18.02;;
36629;SDS011;36256;42.154;23.002;2023-02-18T09:01:09;35.72;;;17.92;;
36629;SDS011;36256;42.154;23.002;2023-02-18T09:03:38;86.10;;;22.33;;
36629;SDS011;36256;42.154;23.002;2023-02-18T09:06:05;32.75;;;20.00;;
36629;SDS011;36256;42.154;23.002;2023-02-18T09:08:32;33.45;;;19.05;;
36629;SDS011;36256;42.154;23.002;2023-02-18T09:11:00;37.70;;;21.25;;
36629;SDS011;36256;42.154;23.002;2023-02-18T09:13:30;32.05;;;18.77;;
36629;SDS011;36256;42.154;23.002;2023-02-18T09:16:16;35.72;;;18.88;;
36629;SDS011;36256;42.154;23.002;2023-02-18T09:18:44;27.37;;;16.77;;
36629;SDS011;36256;42.154;23.002;2023-02-18T09:21:12;30.00;;;16.83;;
36629;SDS011;36256;42.154;23.002;2023-02-18T09:23:41;29.95;;;18.08;;
36629;SDS011;36256;42.154;23.002;2023-02-18T09:26:09;29.20;;;17.80;;
36629;SDS011;36256;42.154;23.002;2023-02-18T09:28:39;28.77;;;16.77;;
36629;SDS011;36256;42.154;23.002;2023-02-18T09:31:07;25.73;;;15.35;;
36629;SDS011;36256;42.154;23.002;2023-02-18T09:33:38;22.40;;;13.50;;
36629;SDS011;36256;42.154;23.002;2023-02-18T09:36:06;28.25;;;14.15;;
36629;SDS011;36256;42.154;23.002;2023-02-18T09:41:00;22.48;;;14.25;;
36629;SDS011;36256;42.154;23.002;2023-02-18T09:43:35;27.85;;;13.80;;
36629;SDS011;36256;42.154;23.002;2023-02-18T09:49:07;23.70;;;14.98;;
36629;SDS011;36256;42.154;23.002;2023-02-18T09:51:40;24.15;;;14.55;;
36629;SDS011;36256;42.154;23.002;2023-02-18T09:54:10;25.92;;;15.48;;
36629;SDS011;36256;42.154;23.002;2023-02-18T09:56:40;48.67;;;19.67;;
36629;SDS011;36256;42.154;23.002;2023-02-18T09:59:10;25.85;;;15.32;;
36629;SDS011;36256;42.154;23.002;2023-02-18T10:01:41;35.03;;;16.67;;
36629;SDS011;36256;42.154;23.002;2023-02-18T10:04:12;31.30;;;16.15;;
36629;SDS011;36256;42.154;23.002;2023-02-18T10:06:39;26.50;;;15.57;;
36629;SDS011;36256;42.154;23.002;2023-02-18T10:09:17;35.85;;;18.13;;
36629;SDS011;36256;42.154;23.002;2023-02-18T10:11:56;28.92;;;16.13;;
36629;SDS011;36256;42.154;23.002;2023-02-18T10:14:25;42.15;;;20.50;;
36629;SDS011;36256;42.154;23.002;2023-02-18T10:16:52;31.65;;;16.52;;
36629;SDS011;36256;42.154;23.002;2023-02-18T10:21:59;35.97;;;18.95;;
36629;SDS011;36256;42.154;23.002;2023-02-18T10:24:28;82.22;;;20.25;;
36629;SDS011;36256;42.154;23.002;2023-02-18T10:26:58;26.75;;;13.48;;
36629;SDS011;36256;42.154;23.002;2023-02-18T10:29:26;19.00;;;11.15;;
36629;SDS011;36256;42.154;23.002;2023-02-18T10:31:56;25.73;;;14.80;;
36629;SDS011;36256;42.154;23.002;2023-02-18T10:37:36;23.23;;;12.00;;
36629;SDS011;36256;42.154;23.002;2023-02-18T10:40:22;20.80;;;11.90;;
36629;SDS011;36256;42.154;23.002;2023-02-18T10:51:27;24.73;;;14.02;;
36629;SDS011;36256;42.154;23.002;2023-02-18T10:53:56;24.52;;;12.82;;
36629;SDS011;36256;42.154;23.002;2023-02-18T10:59:08;13.63;;;8.70;;
36629;SDS011;36256;42.154;23.002;2023-02-18T11:01:35;19.58;;;11.38;;
36629;SDS011;36256;42.154;23.002;2023-02-18T11:04:06;22.50;;;11.57;;
36629;SDS011;36256;42.154;23.002;2023-02-18T11:06:40;19.00;;;10.43;;
36629;SDS011;36256;42.154;23.002;2023-02-18T11:12:04;24.63;;;11.73;;
36629;SDS011;36256;42.154;23.002;2023-02-18T11:14:38;21.02;;;10.93;;
36629;SDS011;36256;42.154;23.002;2023-02-18T11:17:15;23.75;;;13.80;;
36629;SDS011;36256;42.154;23.002;2023-02-18T11:19:56;22.77;;;11.40;;
36629;SDS011;36256;42.154;23.002;2023-02-18T11:22:28;20.58;;;10.10;;
36629;SDS011;36256;42.154;23.002;2023-02-18T11:24:59;18.15;;;10.43;;
36629;SDS011;36256;42.154;23.002;2023-02-18T11:27:31;16.15;;;9.80;;
36629;SDS011;36256;42.154;23.002;2023-02-18T11:30:05;21.17;;;11.52;;
36629;SDS011;36256;42.154;23.002;2023-02-18T11:32:41;17.23;;;10.27;;
36629;SDS011;36256;42.154;23.002;2023-02-18T11:35:16;18.17;;;10.18;;
36629;SDS011;36256;42.154;23.002;2023-02-18T11:37:47;18.08;;;11.55;;
36629;SDS011;36256;42.154;23.002;2023-02-18T11:42:51;23.70;;;13.07;;
36629;SDS011;36256;42.154;23.002;2023-02-18T11:45:28;24.10;;;12.70;;
36629;SDS011;36256;42.154;23.002;2023-02-18T11:48:00;21.25;;;11.15;;
36629;SDS011;36256;42.154;23.002;2023-02-18T11:50:31;18.35;;;10.48;;
36629;SDS011;36256;42.154;23.002;2023-02-18T11:55:27;17.27;;;10.73;;
36629;SDS011;36256;42.154;23.002;2023-02-18T12:06:03;17.52;;;9.57;;
36629;SDS011;36256;42.154;23.002;2023-02-18T12:08:44;15.82;;;9.55;;
36629;SDS011;36256;42.154;23.002;2023-02-18T12:11:21;26.20;;;11.15;;
36629;SDS011;36256;42.154;23.002;2023-02-18T12:13:56;26.08;;;12.35;;
36629;SDS011;36256;42.154;23.002;2023-02-18T12:21:57;56.93;;;11.80;;
36629;SDS011;36256;42.154;23.002;2023-02-18T12:33:08;17.67;;;9.68;;
36629;SDS011;36256;42.154;23.002;2023-02-18T12:36:10;13.13;;;8.85;;
36629;SDS011;36256;42.154;23.002;2023-02-18T12:41:31;22.45;;;9.57;;
36629;SDS011;36256;42.154;23.002;2023-02-18T12:52:52;16.98;;;8.93;;
36629;SDS011;36256;42.154;23.002;2023-02-18T13:01:06;14.45;;;8.73;;
36629;SDS011;36256;42.154;23.002;2023-02-18T13:06:47;13.07;;;8.85;;
36629;SDS011;36256;42.154;23.002;2023-02-18T13:09:38;13.15;;;9.38;;
36629;SDS011;36256;42.154;23.002;2023-02-18T13:12:36;13.35;;;8.85;;
36629;SDS011;36256;42.154;23.002;2023-02-18T13:15:05;11.20;;;8.52;;
36629;SDS011;36256;42.154;23.002;2023-02-18T13:17:42;15.90;;;9.98;;
36629;SDS011;36256;42.154;23.002;2023-02-18T13:22:48;21.15;;;9.05;;
36629;SDS011;36256;42.154;23.002;2023-02-18T13:25:16;14.02;;;9.27;;
36629;SDS011;36256;42.154;23.002;2023-02-18T13:27:49;41.72;;;10.82;;
36629;SDS011;36256;42.154;23.002;2023-02-18T13:30:35;19.75;;;12.15;;
36629;SDS011;36256;42.154;23.002;2023-02-18T13:33:13;23.98;;;11.45;;
36629;SDS011;36256;42.154;23.002;2023-02-18T13:35:47;20.88;;;11.75;;
36629;SDS011;36256;42.154;23.002;2023-02-18T13:41:22;21.50;;;10.35;;
36629;SDS011;36256;42.154;23.002;2023-02-18T13:43:52;23.25;;;14.77;;
36629;SDS011;36256;42.154;23.002;2023-02-18T13:46:23;19.83;;;12.98;;
36629;SDS011;36256;42.154;23.002;2023-02-18T13:48:50;28.88;;;17.80;;
36629;SDS011;36256;42.154;23.002;2023-02-18T13:54:41;28.25;;;15.85;;
36629;SDS011;36256;42.154;23.002;2023-02-18T13:57:15;29.17;;;16.13;;
36629;SDS011;36256;42.154;23.002;2023-02-18T13:59:49;25.73;;;16.40;;
36629;SDS011;36256;42.154;23.002;2023-02-18T14:09:52;42.35;;;19.52;;
36629;SDS011;36256;42.154;23.002;2023-02-18T14:14:56;56.25;;;27.38;;
36629;SDS011;36256;42.154;23.002;2023-02-18T14:17:31;40.35;;;19.52;;
36629;SDS011;36256;42.154;23.002;2023-02-18T14:22:41;31.95;;;18.70;;
36629;SDS011;36256;42.154;23.002;2023-02-18T14:27:38;21.70;;;13.20;;
36629;SDS011;36256;42.154;23.002;2023-02-18T14:30:17;35.63;;;19.70;;
36629;SDS011;36256;42.154;23.002;2023-02-18T14:32:50;72.65;;;38.58;;
36629;SDS011;36256;42.154;23.002;2023-02-18T14:35:26;52.83;;;29.27;;
36629;SDS011;36256;42.154;23.002;2023-02-18T14:49:23;40.30;;;20.70;;
36629;SDS011;36256;42.154;23.002;2023-02-18T14:51:53;34.78;;;20.83;;
36629;SDS011;36256;42.154;23.002;2023-02-18T14:54:23;47.35;;;19.23;;
36629;SDS011;36256;42.154;23.002;2023-02-18T14:56:55;39.72;;;18.50;;
36629;SDS011;36256;42.154;23.002;2023-02-18T14:59:26;31.35;;;18.45;;
36629;SDS011;36256;42.154;23.002;2023-02-18T15:01:55;31.13;;;18.58;;
36629;SDS011;36256;42.154;23.002;2023-02-18T15:04:23;34.03;;;20.40;;
36629;SDS011;36256;42.154;23.002;2023-02-18T15:06:58;40.55;;;20.67;;
36629;SDS011;36256;42.154;23.002;2023-02-18T15:09:29;37.92;;;21.23;;
36629;SDS011;36256;42.154;23.002;2023-02-18T15:11:58;49.50;;;27.67;;
36629;SDS011;36256;42.154;23.002;2023-02-18T15:14:31;49.15;;;28.35;;
36629;SDS011;36256;42.154;23.002;2023-02-18T15:17:03;52.53;;;28.30;;
36629;SDS011;36256;42.154;23.002;2023-02-18T15:19:35;48.65;;;25.75;;
36629;SDS011;36256;42.154;23.002;2023-02-18T15:22:05;40.78;;;25.55;;
36629;SDS011;36256;42.154;23.002;2023-02-18T15:24:43;62.55;;;26.42;;
36629;SDS011;36256;42.154;23.002;2023-02-18T15:30:02;102.07;;;27.40;;
36629;SDS011;36256;42.154;23.002;2023-02-18T15:32:51;54.55;;;23.85;;
36629;SDS011;36256;42.154;23.002;2023-02-18T15:35:20;72.97;;;29.80;;
36629;SDS011;36256;42.154;23.002;2023-02-18T15:37:55;55.83;;;27.02;;
36629;SDS011;36256;42.154;23.002;2023-02-18T15:40:24;52.80;;;26.13;;
36629;SDS011;36256;42.154;23.002;2023-02-18T15:42:56;46.58;;;23.67;;
36629;SDS011;36256;42.154;23.002;2023-02-18T15:45:28;43.60;;;24.27;;
36629;SDS011;36256;42.154;23.002;2023-02-18T15:48:12;38.92;;;21.17;;
36629;SDS011;36256;42.154;23.002;2023-02-18T15:51:02;17.80;;;9.50;;
36629;SDS011;36256;42.154;23.002;2023-02-18T15:53:43;16.98;;;10.65;;
36629;SDS011;36256;42.154;23.002;2023-02-18T15:56:16;30.13;;;16.85;;
36629;SDS011;36256;42.154;23.002;2023-02-18T15:59:09;31.83;;;21.00;;
36629;SDS011;36256;42.154;23.002;2023-02-18T16:01:47;17.50;;;9.13;;
36629;SDS011;36256;42.154;23.002;2023-02-18T16:04:16;16.05;;;9.13;;
36629;SDS011;36256;42.154;23.002;2023-02-18T16:06:44;15.40;;;9.98;;
36629;SDS011;36256;42.154;23.002;2023-02-18T16:09:28;17.50;;;9.50;;
36629;SDS011;36256;42.154;23.002;2023-02-18T16:11:58;13.20;;;8.23;;
36629;SDS011;36256;42.154;23.002;2023-02-18T16:14:49;14.88;;;8.93;;
36629;SDS011;36256;42.154;23.002;2023-02-18T16:22:32;11.90;;;7.60;;
36629;SDS011;36256;42.154;23.002;2023-02-18T16:27:30;21.60;;;14.35;;
36629;SDS011;36256;42.154;23.002;2023-02-18T16:30:00;40.03;;;16.98;;
36629;SDS011;36256;42.154;23.002;2023-02-18T16:32:32;15.20;;;9.63;;
36629;SDS011;36256;42.154;23.002;2023-02-18T16:34:59;16.73;;;8.10;;
36629;SDS011;36256;42.154;23.002;2023-02-18T16:37:26;15.57;;;9.80;;
36629;SDS011;36256;42.154;23.002;2023-02-18T16:40:27;13.88;;;9.40;;
36629;SDS011;36256;42.154;23.002;2023-02-18T16:43:13;12.55;;;8.10;;
36629;SDS011;36256;42.154;23.002;2023-02-18T16:45:45;21.60;;;7.93;;
36629;SDS011;36256;42.154;23.002;2023-02-18T16:51:22;11.95;;;7.45;;
36629;SDS011;36256;42.154;23.002;2023-02-18T16:53:51;12.40;;;7.90;;
36629;SDS011;36256;42.154;23.002;2023-02-18T16:56:19;22.13;;;13.93;;
36629;SDS011;36256;42.154;23.002;2023-02-18T16:58:51;18.30;;;11.13;;
36629;SDS011;36256;42.154;23.002;2023-02-18T17:01:31;20.48;;;12.48;;
36629;SDS011;36256;42.154;23.002;2023-02-18T17:04:01;25.48;;;14.82;;
36629;SDS011;36256;42.154;23.002;2023-02-18T17:08:55;24.67;;;13.35;;
36629;SDS011;36256;42.154;23.002;2023-02-18T17:11:27;27.42;;;16.38;;
36629;SDS011;36256;42.154;23.002;2023-02-18T17:13:56;45.85;;;19.83;;
36629;SDS011;36256;42.154;23.002;2023-02-18T17:16:25;30.77;;;15.52;;
36629;SDS011;36256;42.154;23.002;2023-02-18T17:18:52;28.58;;;15.93;;
36629;SDS011;36256;42.154;23.002;2023-02-18T17:21:20;14.43;;;8.13;;
36629;SDS011;36256;42.154;23.002;2023-02-18T17:23:48;14.63;;;8.20;;
36629;SDS011;36256;42.154;23.002;2023-02-18T17:28:53;16.75;;;9.20;;
36629;SDS011;36256;42.154;23.002;2023-02-18T17:31:23;21.92;;;13.60;;
36629;SDS011;36256;42.154;23.002;2023-02-18T17:33:53;48.38;;;23.10;;
36629;SDS011;36256;42.154;23.002;2023-02-18T17:36:21;36.97;;;16.98;;
36629;SDS011;36256;42.154;23.002;2023-02-18T17:38:48;169.70;;;61.10;;